sensor_id;sensor_type;location;lat;lon;timestamp;pressure;altitude;pressure_sealevel;temperature;humidity
39265;BME280;42646;51.910;7.724;2023-04-04T00:00:34;102391.22;;;-0.09;86.85
39265;BME280;42646;51.910;7.724;2023-04-04T00:03:03;102396.47;;;-0.11;87.10
39265;BME280;42646;51.910;7.724;2023-04-04T00:05:32;102400.00;;;-0.13;87.21
39265;BME280;42646;51.910;7.724;2023-04-04T00:08:01;102396.53;;;-0.14;87.16
39265;BME280;42646;51.910;7.724;2023-04-04T00:10:30;102398.31;;;-0.16;87.22
39265;BME280;42646;51.910;7.724;2023-04-04T00:12:59;102393.13;;;-0.17;86.91
39265;BME280;42646;51.910;7.724;2023-04-04T00:15:26;102393.13;;;-0.19;86.90
39265;BME280;42646;51.910;7.724;2023-04-04T00:17:54;102392.25;;;-0.19;86.53
39265;BME280;42646;51.910;7.724;2023-04-04T00:20:22;102390.53;;;-0.20;86.07
39265;BME280;42646;51.910;7.724;2023-04-04T00:22:51;102396.69;;;-0.23;86.22
39265;BME280;42646;51.910;7.724;2023-04-04T00:25:19;102393.22;;;-0.23;86.34
39265;BME280;42646;51.910;7.724;2023-04-04T00:27:46;102397.56;;;-0.22;87.26
39265;BME280;42646;51.910;7.724;2023-04-04T00:30:14;102392.28;;;-0.21;87.87
39265;BME280;42646;51.910;7.724;2023-04-04T00:32:43;102390.56;;;-0.22;88.52
39265;BME280;42646;51.910;7.724;2023-04-04T00:35:11;102391.47;;;-0.23;88.64
39265;BME280;42646;51.910;7.724;2023-04-04T00:37:39;102384.50;;;-0.24;88.99
39265;BME280;42646;51.910;7.724;2023-04-04T00:40:08;102389.72;;;-0.24;89.12
39265;BME280;42646;51.910;7.724;2023-04-04T00:42:36;102387.13;;;-0.25;89.09
39265;BME280;42646;51.910;7.724;2023-04-04T00:45:05;102385.44;;;-0.28;89.36
39265;BME280;42646;51.910;7.724;2023-04-04T00:47:34;102387.22;;;-0.29;89.56
39265;BME280;42646;51.910;7.724;2023-04-04T00:50:04;102388.97;;;-0.31;89.65
39265;BME280;42646;51.910;7.724;2023-04-04T00:52:31;102380.28;;;-0.33;89.60
39265;BME280;42646;51.910;7.724;2023-04-04T00:55:00;102378.59;;;-0.35;89.16
39265;BME280;42646;51.910;7.724;2023-04-04T00:57:29;102387.31;;;-0.36;89.06
39265;BME280;42646;51.910;7.724;2023-04-04T00:59:58;102388.25;;;-0.39;88.93
39265;BME280;42646;51.910;7.724;2023-04-04T01:02:26;102390.03;;;-0.41;88.59
39265;BME280;42646;51.910;7.724;2023-04-04T01:04:54;102388.31;;;-0.43;88.53
39265;BME280;42646;51.910;7.724;2023-04-04T01:07:22;102383.97;;;-0.44;88.21
39265;BME280;42646;51.910;7.724;2023-04-04T01:09:51;102383.97;;;-0.44;88.33
39265;BME280;42646;51.910;7.724;2023-04-04T01:12:19;102383.13;;;-0.45;88.86
39265;BME280;42646;51.910;7.724;2023-04-04T01:14:48;102377.88;;;-0.45;89.67
39265;BME280;42646;51.910;7.724;2023-04-04T01:17:18;102383.09;;;-0.43;90.35
39265;BME280;42646;51.910;7.724;2023-04-04T01:19:52;102384.00;;;-0.46;90.60
39265;BME280;42646;51.910;7.724;2023-04-04T01:22:29;102375.34;;;-0.49;90.45
39265;BME280;42646;51.910;7.724;2023-04-04T01:24:59;102384.13;;;-0.52;90.64
39265;BME280;42646;51.910;7.724;2023-04-04T01:27:30;102374.56;;;-0.53;90.61
39265;BME280;42646;51.910;7.724;2023-04-04T01:30:07;102371.94;;;-0.53;90.56
39265;BME280;42646;51.910;7.724;2023-04-04T01:32:36;102365.81;;;-0.54;90.79
39265;BME280;42646;51.910;7.724;2023-04-04T01:35:15;102367.56;;;-0.54;91.22
39265;BME280;42646;51.910;7.724;2023-04-04T01:37:52;102361.56;;;-0.58;91.40
39265;BME280;42646;51.910;7.724;2023-04-04T01:40:25;102365.06;;;-0.60;91.44
39265;BME280;42646;51.910;7.724;2023-04-04T01:42:56;102363.38;;;-0.63;90.58
39265;BME280;42646;51.910;7.724;2023-04-04T01:45:26;102365.16;;;-0.66;90.30
39265;BME280;42646;51.910;7.724;2023-04-04T01:47:59;102359.97;;;-0.68;90.15
39265;BME280;42646;51.910;7.724;2023-04-04T01:50:28;102366.09;;;-0.69;89.98
39265;BME280;42646;51.910;7.724;2023-04-04T01:52:55;102359.13;;;-0.70;90.06
39265;BME280;42646;51.910;7.724;2023-04-04T01:55:28;102361.75;;;-0.71;89.81
39265;BME280;42646;51.910;7.724;2023-04-04T01:57:58;102363.53;;;-0.73;89.95
39265;BME280;42646;51.910;7.724;2023-04-04T02:00:26;102362.72;;;-0.75;90.18
39265;BME280;42646;51.910;7.724;2023-04-04T02:02:55;102362.75;;;-0.77;89.86
39265;BME280;42646;51.910;7.724;2023-04-04T02:05:23;102359.28;;;-0.79;89.61
39265;BME280;42646;51.910;7.724;2023-04-04T02:07:51;102359.31;;;-0.81;89.60
39265;BME280;42646;51.910;7.724;2023-04-04T02:10:28;102358.47;;;-0.83;90.00
39265;BME280;42646;51.910;7.724;2023-04-04T02:13:01;102359.34;;;-0.82;90.12
39265;BME280;42646;51.910;7.724;2023-04-04T02:15:29;102354.09;;;-0.84;90.48
39265;BME280;42646;51.910;7.724;2023-04-04T02:17:58;102355.00;;;-0.85;90.65
39265;BME280;42646;51.910;7.724;2023-04-04T02:20:27;102358.50;;;-0.86;91.01
39265;BME280;42646;51.910;7.724;2023-04-04T02:22:59;102356.81;;;-0.88;91.20
39265;BME280;42646;51.910;7.724;2023-04-04T02:25:28;102354.19;;;-0.88;91.09
39265;BME280;42646;51.910;7.724;2023-04-04T02:27:55;102356.81;;;-0.88;91.25
39265;BME280;42646;51.910;7.724;2023-04-04T02:30:24;102355.97;;;-0.89;91.49
39265;BME280;42646;51.910;7.724;2023-04-04T02:32:56;102356.91;;;-0.94;91.88
39265;BME280;42646;51.910;7.724;2023-04-04T02:35:24;102346.47;;;-0.96;92.19
39265;BME280;42646;51.910;7.724;2023-04-04T02:37:51;102355.19;;;-0.97;91.76
39265;BME280;42646;51.910;7.724;2023-04-04T02:40:30;102347.41;;;-1.00;91.64
39265;BME280;42646;51.910;7.724;2023-04-04T02:42:58;102350.03;;;-1.01;91.55
39265;BME280;42646;51.910;7.724;2023-04-04T02:45:28;102350.09;;;-1.04;91.23
39265;BME280;42646;51.910;7.724;2023-04-04T02:48:11;102350.97;;;-1.07;90.84
39265;BME280;42646;51.910;7.724;2023-04-04T02:50:45;102358.84;;;-1.09;90.84
39265;BME280;42646;51.910;7.724;2023-04-04T02:53:17;102358.00;;;-1.11;90.74
39265;BME280;42646;51.910;7.724;2023-04-04T02:55:48;102352.81;;;-1.12;90.63
39265;BME280;42646;51.910;7.724;2023-04-04T02:58:18;102339.75;;;-1.14;90.85
39265;BME280;42646;51.910;7.724;2023-04-04T03:00:53;102350.22;;;-1.15;90.57
39265;BME280;42646;51.910;7.724;2023-04-04T03:03:26;102352.03;;;-1.17;90.75
39265;BME280;42646;51.910;7.724;2023-04-04T03:05:55;102343.31;;;-1.18;90.86
39265;BME280;42646;51.910;7.724;2023-04-04T03:08:23;102341.56;;;-1.19;90.85
39265;BME280;42646;51.910;7.724;2023-04-04T03:10:51;102337.25;;;-1.20;90.76
39265;BME280;42646;51.910;7.724;2023-04-04T03:13:19;102333.75;;;-1.20;91.20
39265;BME280;42646;51.910;7.724;2023-04-04T03:15:46;102322.44;;;-1.18;91.33
39265;BME280;42646;51.910;7.724;2023-04-04T03:18:17;102318.03;;;-1.16;92.14
39265;BME280;42646;51.910;7.724;2023-04-04T03:20:45;102324.13;;;-1.15;92.74
39265;BME280;42646;51.910;7.724;2023-04-04T03:23:18;102319.78;;;-1.16;93.51
39265;BME280;42646;51.910;7.724;2023-04-04T03:25:45;102321.56;;;-1.18;93.61
39265;BME280;42646;51.910;7.724;2023-04-04T03:28:16;102314.63;;;-1.21;93.84
39265;BME280;42646;51.910;7.724;2023-04-04T03:30:44;102316.41;;;-1.23;93.52
39265;BME280;42646;51.910;7.724;2023-04-04T03:33:13;102319.91;;;-1.25;93.21
39265;BME280;42646;51.910;7.724;2023-04-04T03:35:43;102322.56;;;-1.27;93.62
39265;BME280;42646;51.910;7.724;2023-04-04T03:38:11;102318.22;;;-1.28;93.40
39265;BME280;42646;51.910;7.724;2023-04-04T03:40:40;102320.88;;;-1.29;93.93
39265;BME280;42646;51.910;7.724;2023-04-04T03:43:10;102314.78;;;-1.31;93.85
39265;BME280;42646;51.910;7.724;2023-04-04T03:45:42;102318.28;;;-1.32;93.53
39265;BME280;42646;51.910;7.724;2023-04-04T03:48:10;102313.13;;;-1.36;93.26
39265;BME280;42646;51.910;7.724;2023-04-04T03:50:39;102311.38;;;-1.37;92.87
39265;BME280;42646;51.910;7.724;2023-04-04T03:53:08;102306.19;;;-1.40;92.82
39265;BME280;42646;51.910;7.724;2023-04-04T03:55:39;102301.88;;;-1.41;93.16
39265;BME280;42646;51.910;7.724;2023-04-04T03:58:07;102301.91;;;-1.42;93.17
39265;BME280;42646;51.910;7.724;2023-04-04T04:00:37;102301.00;;;-1.43;93.41
39265;BME280;42646;51.910;7.724;2023-04-04T04:03:05;102295.78;;;-1.43;93.52
39265;BME280;42646;51.910;7.724;2023-04-04T04:05:34;102298.41;;;-1.43;94.03
39265;BME280;42646;51.910;7.724;2023-04-04T04:08:27;102303.66;;;-1.44;94.36
39265;BME280;42646;51.910;7.724;2023-04-04T04:10:54;102308.91;;;-1.46;94.74
39265;BME280;42646;51.910;7.724;2023-04-04T04:13:23;102301.09;;;-1.47;94.51
39265;BME280;42646;51.910;7.724;2023-04-04T04:15:53;102310.69;;;-1.49;94.32
39265;BME280;42646;51.910;7.724;2023-04-04T04:18:22;102306.34;;;-1.50;94.45
39265;BME280;42646;51.910;7.724;2023-04-04T04:20:55;102302.03;;;-1.53;94.11
39265;BME280;42646;51.910;7.724;2023-04-04T04:23:24;102307.25;;;-1.53;94.29
39265;BME280;42646;51.910;7.724;2023-04-04T04:25:55;102309.00;;;-1.53;94.00
39265;BME280;42646;51.910;7.724;2023-04-04T04:28:24;102304.66;;;-1.54;94.19
39265;BME280;42646;51.910;7.724;2023-04-04T04:31:04;102305.53;;;-1.55;94.32
39265;BME280;42646;51.910;7.724;2023-04-04T04:33:39;102302.09;;;-1.57;94.58
39265;BME280;42646;51.910;7.724;2023-04-04T04:36:08;102302.09;;;-1.57;94.26
39265;BME280;42646;51.910;7.724;2023-04-04T04:38:46;102298.66;;;-1.59;94.75
39265;BME280;42646;51.910;7.724;2023-04-04T04:41:51;102296.03;;;-1.61;95.29
39265;BME280;42646;51.910;7.724;2023-04-04T04:44:20;102300.41;;;-1.62;95.69
39265;BME280;42646;51.910;7.724;2023-04-04T04:46:48;102300.41;;;-1.62;96.19
39265;BME280;42646;51.910;7.724;2023-04-04T04:49:17;102296.94;;;-1.62;96.42
39265;BME280;42646;51.910;7.724;2023-04-04T04:51:46;102301.28;;;-1.63;96.47
39265;BME280;42646;51.910;7.724;2023-04-04T04:54:16;102304.78;;;-1.64;96.50
39265;BME280;42646;51.910;7.724;2023-04-04T04:56:46;102303.91;;;-1.63;96.40
39265;BME280;42646;51.910;7.724;2023-04-04T04:59:15;102303.94;;;-1.64;96.54
39265;BME280;42646;51.910;7.724;2023-04-04T05:01:43;102303.94;;;-1.64;96.60
39265;BME280;42646;51.910;7.724;2023-04-04T05:04:12;102306.56;;;-1.66;96.46
39265;BME280;42646;51.910;7.724;2023-04-04T05:06:55;102305.72;;;-1.69;96.60
39265;BME280;42646;51.910;7.724;2023-04-04T05:09:24;102304.84;;;-1.68;96.46
39265;BME280;42646;51.910;7.724;2023-04-04T05:11:53;102298.75;;;-1.69;95.78
39265;BME280;42646;51.910;7.724;2023-04-04T05:14:34;102304.84;;;-1.68;96.23
39265;BME280;42646;51.910;7.724;2023-04-04T05:17:04;102305.72;;;-1.69;96.08
39265;BME280;42646;51.910;7.724;2023-04-04T05:19:34;102309.19;;;-1.69;96.36
39265;BME280;42646;51.910;7.724;2023-04-04T05:22:03;102314.41;;;-1.69;96.81
39265;BME280;42646;51.910;7.724;2023-04-04T05:24:41;102316.16;;;-1.69;96.59
39265;BME280;42646;51.910;7.724;2023-04-04T05:27:13;102317.06;;;-1.70;96.87
39265;BME280;42646;51.910;7.724;2023-04-04T05:29:47;102324.84;;;-1.69;96.81
39265;BME280;42646;51.910;7.724;2023-04-04T05:32:15;102324.88;;;-1.70;96.60
39265;BME280;42646;51.910;7.724;2023-04-04T05:34:59;102329.22;;;-1.69;96.61
39265;BME280;42646;51.910;7.724;2023-04-04T05:37:31;102329.25;;;-1.71;96.63
39265;BME280;42646;51.910;7.724;2023-04-04T05:40:01;102331.00;;;-1.71;96.48
39265;BME280;42646;51.910;7.724;2023-04-04T05:42:29;102330.97;;;-1.70;96.12
39265;BME280;42646;51.910;7.724;2023-04-04T05:44:59;102337.94;;;-1.70;95.93
39265;BME280;42646;51.910;7.724;2023-04-04T05:47:28;102343.13;;;-1.69;96.15
39265;BME280;42646;51.910;7.724;2023-04-04T05:49:56;102341.38;;;-1.68;96.39
39265;BME280;42646;51.910;7.724;2023-04-04T05:52:25;102337.88;;;-1.67;96.70
39265;BME280;42646;51.910;7.724;2023-04-04T05:54:53;102343.97;;;-1.65;97.23
39265;BME280;42646;51.910;7.724;2023-04-04T05:57:27;102338.72;;;-1.64;97.34
39265;BME280;42646;51.910;7.724;2023-04-04T05:59:57;102338.72;;;-1.64;97.97
39265;BME280;42646;51.910;7.724;2023-04-04T06:02:26;102343.91;;;-1.62;98.06
39265;BME280;42646;51.910;7.724;2023-04-04T06:05:01;102352.63;;;-1.63;98.31
39265;BME280;42646;51.910;7.724;2023-04-04T06:07:32;102353.50;;;-1.64;98.14
39265;BME280;42646;51.910;7.724;2023-04-04T06:10:00;102357.84;;;-1.63;97.82
39265;BME280;42646;51.910;7.724;2023-04-04T06:12:29;102360.44;;;-1.63;97.79
39265;BME280;42646;51.910;7.724;2023-04-04T06:14:59;102365.63;;;-1.62;97.37
39265;BME280;42646;51.910;7.724;2023-04-04T06:17:38;102367.34;;;-1.61;97.20
39265;BME280;42646;51.910;7.724;2023-04-04T06:20:10;102370.84;;;-1.58;97.36
39265;BME280;42646;51.910;7.724;2023-04-04T06:22:42;102373.41;;;-1.57;97.47
39265;BME280;42646;51.910;7.724;2023-04-04T06:25:11;102381.16;;;-1.51;97.47
39265;BME280;42646;51.910;7.724;2023-04-04T06:27:40;102369.81;;;-1.47;97.63
39265;BME280;42646;51.910;7.724;2023-04-04T06:30:09;102368.00;;;-1.40;97.68
39265;BME280;42646;51.910;7.724;2023-04-04T06:32:41;102377.50;;;-1.35;97.73
39265;BME280;42646;51.910;7.724;2023-04-04T06:35:14;102377.34;;;-1.25;98.02
39265;BME280;42646;51.910;7.724;2023-04-04T06:37:54;102369.38;;;-1.15;98.30
39265;BME280;42646;51.910;7.724;2023-04-04T06:40:24;102373.59;;;-1.04;98.48
39265;BME280;42646;51.910;7.724;2023-04-04T06:42:52;102380.38;;;-0.93;99.55
39265;BME280;42646;51.910;7.724;2023-04-04T06:45:28;102374.03;;;-0.75;98.69
39265;BME280;42646;51.910;7.724;2023-04-04T06:48:00;102379.06;;;-0.63;98.04
39265;BME280;42646;51.910;7.724;2023-04-04T06:50:33;102372.81;;;-0.54;98.15
39265;BME280;42646;51.910;7.724;2023-04-04T06:53:09;102371.72;;;-0.42;97.38
39265;BME280;42646;51.910;7.724;2023-04-04T06:55:37;102376.00;;;-0.37;97.01
39265;BME280;42646;51.910;7.724;2023-04-04T06:58:06;102382.91;;;-0.33;96.85
39265;BME280;42646;51.910;7.724;2023-04-04T07:00:35;102376.69;;;-0.25;96.46
39265;BME280;42646;51.910;7.724;2023-04-04T07:03:04;102380.91;;;-0.18;96.44
39265;BME280;42646;51.910;7.724;2023-04-04T07:05:35;102384.19;;;-0.06;95.80
39265;BME280;42646;51.910;7.724;2023-04-04T07:08:04;102381.34;;;0.07;95.25
39265;BME280;42646;51.910;7.724;2023-04-04T07:10:32;102385.44;;;0.20;94.91
39265;BME280;42646;51.910;7.724;2023-04-04T07:13:01;102385.31;;;0.26;93.92
39265;BME280;42646;51.910;7.724;2023-04-04T07:15:32;102373.84;;;0.33;93.35
39265;BME280;42646;51.910;7.724;2023-04-04T07:18:05;102377.16;;;0.41;92.92
39265;BME280;42646;51.910;7.724;2023-04-04T07:20:34;102387.41;;;0.53;92.36
39265;BME280;42646;51.910;7.724;2023-04-04T07:23:02;102380.16;;;0.65;91.54
39265;BME280;42646;51.910;7.724;2023-04-04T07:25:30;102383.38;;;0.79;90.46
39265;BME280;42646;51.910;7.724;2023-04-04T07:27:59;102375.16;;;0.94;89.34
39265;BME280;42646;51.910;7.724;2023-04-04T07:30:38;102379.06;;;1.15;88.05
39265;BME280;42646;51.910;7.724;2023-04-04T07:33:09;102373.72;;;1.55;86.62
39265;BME280;42646;51.910;7.724;2023-04-04T07:35:37;102369.44;;;1.85;86.65
39265;BME280;42646;51.910;7.724;2023-04-04T07:38:04;102369.28;;;2.23;83.32
39265;BME280;42646;51.910;7.724;2023-04-04T07:40:34;102358.56;;;2.61;79.64
39265;BME280;42646;51.910;7.724;2023-04-04T07:43:02;102353.09;;;2.97;80.02
39265;BME280;42646;51.910;7.724;2023-04-04T07:45:29;102353.19;;;3.22;79.70
39265;BME280;42646;51.910;7.724;2023-04-04T07:47:59;102357.78;;;3.42;78.82
39265;BME280;42646;51.910;7.724;2023-04-04T07:50:28;102360.72;;;3.59;78.01
39265;BME280;42646;51.910;7.724;2023-04-04T07:52:57;102348.81;;;3.74;77.57
39265;BME280;42646;51.910;7.724;2023-04-04T07:55:25;102351.91;;;3.85;77.02
39265;BME280;42646;51.910;7.724;2023-04-04T07:57:54;102353.16;;;4.00;75.79
39265;BME280;42646;51.910;7.724;2023-04-04T08:00:27;102359.97;;;4.06;73.46
39265;BME280;42646;51.910;7.724;2023-04-04T08:02:55;102356.16;;;4.14;73.12
39265;BME280;42646;51.910;7.724;2023-04-04T08:05:24;102353.19;;;4.23;71.37
39265;BME280;42646;51.910;7.724;2023-04-04T08:07:54;102356.53;;;4.28;70.20
39265;BME280;42646;51.910;7.724;2023-04-04T08:10:24;102344.91;;;4.34;70.31
39265;BME280;42646;51.910;7.724;2023-04-04T08:12:52;102353.22;;;4.47;69.83
39265;BME280;42646;51.910;7.724;2023-04-04T08:15:20;102349.81;;;4.67;67.66
39265;BME280;42646;51.910;7.724;2023-04-04T08:17:49;102350.78;;;4.88;65.76
39265;BME280;42646;51.910;7.724;2023-04-04T08:20:17;102348.50;;;5.00;64.55
39265;BME280;42646;51.910;7.724;2023-04-04T08:22:45;102347.66;;;5.00;63.27
39265;BME280;42646;51.910;7.724;2023-04-04T08:25:15;102350.69;;;4.89;63.22
39265;BME280;42646;51.910;7.724;2023-04-04T08:27:43;102355.13;;;4.89;65.87
39265;BME280;42646;51.910;7.724;2023-04-04T08:30:12;102351.50;;;5.13;65.15
39265;BME280;42646;51.910;7.724;2023-04-04T08:32:40;102345.78;;;5.46;64.71
39265;BME280;42646;51.910;7.724;2023-04-04T08:35:08;102355.69;;;5.61;64.21
39265;BME280;42646;51.910;7.724;2023-04-04T08:37:36;102347.56;;;5.86;62.10
39265;BME280;42646;51.910;7.724;2023-04-04T08:40:06;102342.13;;;6.11;59.18
39265;BME280;42646;51.910;7.724;2023-04-04T08:42:39;102352.84;;;6.27;56.47
39265;BME280;42646;51.910;7.724;2023-04-04T08:45:08;102342.56;;;6.21;56.70
39265;BME280;42646;51.910;7.724;2023-04-04T08:47:37;102347.66;;;6.25;58.20
39265;BME280;42646;51.910;7.724;2023-04-04T08:50:07;102350.88;;;6.32;57.88
39265;BME280;42646;51.910;7.724;2023-04-04T08:52:39;102339.34;;;6.33;57.96
39265;BME280;42646;51.910;7.724;2023-04-04T08:55:09;102337.16;;;6.42;58.50
39265;BME280;42646;51.910;7.724;2023-04-04T08:57:39;102339.69;;;6.64;58.19
39265;BME280;42646;51.910;7.724;2023-04-04T09:00:08;102341.81;;;6.75;58.93
39265;BME280;42646;51.910;7.724;2023-04-04T09:02:42;102338.91;;;6.99;58.28
39265;BME280;42646;51.910;7.724;2023-04-04T09:05:13;102339.03;;;7.14;56.72
39265;BME280;42646;51.910;7.724;2023-04-04T09:07:41;102342.72;;;7.12;53.78
39265;BME280;42646;51.910;7.724;2023-04-04T09:10:10;102342.41;;;7.18;53.05
39265;BME280;42646;51.910;7.724;2023-04-04T09:12:41;102340.75;;;7.15;51.81
39265;BME280;42646;51.910;7.724;2023-04-04T09:15:10;102339.81;;;7.16;52.96
39265;BME280;42646;51.910;7.724;2023-04-04T09:17:39;102334.00;;;7.27;53.92
39265;BME280;42646;51.910;7.724;2023-04-04T09:20:33;102332.44;;;7.40;53.67
39265;BME280;42646;51.910;7.724;2023-04-04T09:23:04;102336.44;;;7.49;53.03
39265;BME280;42646;51.910;7.724;2023-04-04T09:25:34;102331.16;;;7.66;50.64
39265;BME280;42646;51.910;7.724;2023-04-04T09:28:04;102330.84;;;7.55;51.87
39265;BME280;42646;51.910;7.724;2023-04-04T09:30:34;102326.50;;;7.71;52.34
39265;BME280;42646;51.910;7.724;2023-04-04T09:33:03;102324.59;;;7.73;51.97
39265;BME280;42646;51.910;7.724;2023-04-04T09:35:33;102320.00;;;7.77;52.37
39265;BME280;42646;51.910;7.724;2023-04-04T09:38:02;102320.78;;;7.79;52.60
39265;BME280;42646;51.910;7.724;2023-04-04T09:40:31;102324.59;;;7.73;52.04
39265;BME280;42646;51.910;7.724;2023-04-04T09:43:00;102317.59;;;7.72;51.42
39265;BME280;42646;51.910;7.724;2023-04-04T09:45:30;102314.25;;;7.52;50.61
39265;BME280;42646;51.910;7.724;2023-04-04T09:47:59;102312.22;;;7.39;50.48
39265;BME280;42646;51.910;7.724;2023-04-04T09:50:27;102312.44;;;7.35;51.43
39265;BME280;42646;51.910;7.724;2023-04-04T09:52:57;102313.88;;;7.42;52.59
39265;BME280;42646;51.910;7.724;2023-04-04T09:55:32;102303.72;;;7.50;52.41
39265;BME280;42646;51.910;7.724;2023-04-04T09:58:11;102314.09;;;7.72;49.81
39265;BME280;42646;51.910;7.724;2023-04-04T10:00:45;102312.84;;;7.79;49.05
39265;BME280;42646;51.910;7.724;2023-04-04T10:03:14;102307.94;;;7.71;49.33
39265;BME280;42646;51.910;7.724;2023-04-04T10:05:44;102309.00;;;7.85;48.48
39265;BME280;42646;51.910;7.724;2023-04-04T10:08:13;102302.78;;;7.68;48.47
39265;BME280;42646;51.910;7.724;2023-04-04T10:10:46;102302.78;;;7.68;48.70
39265;BME280;42646;51.910;7.724;2023-04-04T10:13:30;102303.59;;;7.53;49.13
39265;BME280;42646;51.910;7.724;2023-04-04T10:16:00;102296.00;;;7.45;49.96
39265;BME280;42646;51.910;7.724;2023-04-04T10:18:30;102290.03;;;7.42;50.33
39265;BME280;42646;51.910;7.724;2023-04-04T10:21:01;102290.56;;;7.48;50.14
39265;BME280;42646;51.910;7.724;2023-04-04T10:23:41;102286.97;;;7.67;50.18
39265;BME280;42646;51.910;7.724;2023-04-04T10:26:12;102292.06;;;7.71;49.93
39265;BME280;42646;51.910;7.724;2023-04-04T10:28:41;102287.53;;;7.73;50.60
39265;BME280;42646;51.910;7.724;2023-04-04T10:31:15;102286.97;;;7.84;50.20
39265;BME280;42646;51.910;7.724;2023-04-04T10:33:54;102285.16;;;7.85;50.05
39265;BME280;42646;51.910;7.724;2023-04-04T10:36:23;102282.59;;;7.83;48.99
39265;BME280;42646;51.910;7.724;2023-04-04T10:39:01;102282.50;;;7.85;49.86
39265;BME280;42646;51.910;7.724;2023-04-04T10:41:33;102278.03;;;8.02;49.17
39265;BME280;42646;51.910;7.724;2023-04-04T10:44:11;102282.31;;;8.05;49.77
39265;BME280;42646;51.910;7.724;2023-04-04T10:46:42;102279.59;;;8.07;49.89
39265;BME280;42646;51.910;7.724;2023-04-04T10:49:13;102273.72;;;8.00;49.10
39265;BME280;42646;51.910;7.724;2023-04-04T10:51:41;102273.69;;;8.01;49.16
39265;BME280;42646;51.910;7.724;2023-04-04T10:54:22;102261.44;;;7.99;48.68
39265;BME280;42646;51.910;7.724;2023-04-04T10:56:51;102261.38;;;8.00;48.18
39265;BME280;42646;51.910;7.724;2023-04-04T10:59:20;102258.00;;;7.97;48.05
39265;BME280;42646;51.910;7.724;2023-04-04T11:01:56;102252.94;;;7.92;48.67
39265;BME280;42646;51.910;7.724;2023-04-04T11:04:32;102246.88;;;7.90;48.47
39265;BME280;42646;51.910;7.724;2023-04-04T11:07:12;102248.41;;;7.79;47.18
39265;BME280;42646;51.910;7.724;2023-04-04T11:09:51;102243.09;;;7.79;47.92
39265;BME280;42646;51.910;7.724;2023-04-04T11:12:21;102238.88;;;7.74;48.29
39265;BME280;42646;51.910;7.724;2023-04-04T11:14:57;102240.44;;;7.79;48.05
39265;BME280;42646;51.910;7.724;2023-04-04T11:17:41;102239.66;;;7.76;47.84
39265;BME280;42646;51.910;7.724;2023-04-04T11:20:10;102236.00;;;7.79;47.84
39265;BME280;42646;51.910;7.724;2023-04-04T11:22:41;102225.94;;;7.86;47.60
39265;BME280;42646;51.910;7.724;2023-04-04T11:25:27;102231.59;;;7.95;48.40
39265;BME280;42646;51.910;7.724;2023-04-04T11:27:56;102232.78;;;7.90;47.92
39265;BME280;42646;51.910;7.724;2023-04-04T11:30:25;102237.28;;;7.88;48.71
39265;BME280;42646;51.910;7.724;2023-04-04T11:32:57;102233.78;;;7.87;49.43
39265;BME280;42646;51.910;7.724;2023-04-04T11:35:37;102238.41;;;7.84;48.76
39265;BME280;42646;51.910;7.724;2023-04-04T11:38:11;102234.81;;;7.85;48.41
39265;BME280;42646;51.910;7.724;2023-04-04T11:40:41;102228.66;;;7.84;48.80
39265;BME280;42646;51.910;7.724;2023-04-04T11:43:10;102229.88;;;7.94;49.15
39265;BME280;42646;51.910;7.724;2023-04-04T11:45:43;102219.88;;;7.99;48.96
39265;BME280;42646;51.910;7.724;2023-04-04T11:48:13;102222.28;;;8.04;48.73
39265;BME280;42646;51.910;7.724;2023-04-04T11:50:44;102220.34;;;8.08;48.26
39265;BME280;42646;51.910;7.724;2023-04-04T11:53:14;102209.78;;;8.06;48.06
39265;BME280;42646;51.910;7.724;2023-04-04T11:55:47;102216.56;;;8.12;48.00
39265;BME280;42646;51.910;7.724;2023-04-04T11:58:16;102213.84;;;8.13;48.09
39265;BME280;42646;51.910;7.724;2023-04-04T12:00:45;102203.91;;;8.17;47.69
39265;BME280;42646;51.910;7.724;2023-04-04T12:03:15;102206.50;;;8.18;46.75
39265;BME280;42646;51.910;7.724;2023-04-04T12:05:45;102194.66;;;8.24;46.59
39265;BME280;42646;51.910;7.724;2023-04-04T12:08:14;102197.66;;;8.18;46.41
39265;BME280;42646;51.910;7.724;2023-04-04T12:10:43;102191.59;;;8.16;47.15
39265;BME280;42646;51.910;7.724;2023-04-04T12:13:12;102187.84;;;8.20;47.32
39265;BME280;42646;51.910;7.724;2023-04-04T12:15:41;102193.91;;;8.22;46.84
39265;BME280;42646;51.910;7.724;2023-04-04T12:18:21;102188.25;;;8.28;46.76
39265;BME280;42646;51.910;7.724;2023-04-04T12:20:49;102189.97;;;8.29;45.98
39265;BME280;42646;51.910;7.724;2023-04-04T12:23:18;102181.84;;;8.32;47.11
39265;BME280;42646;51.910;7.724;2023-04-04T12:25:46;102181.66;;;8.37;47.11
39265;BME280;42646;51.910;7.724;2023-04-04T12:28:19;102177.31;;;8.34;46.55
39265;BME280;42646;51.910;7.724;2023-04-04T12:30:48;102170.34;;;8.49;47.36
39265;BME280;42646;51.910;7.724;2023-04-04T12:33:16;102170.19;;;8.36;47.67
39265;BME280;42646;51.910;7.724;2023-04-04T12:35:51;102164.78;;;8.38;48.06
39265;BME280;42646;51.910;7.724;2023-04-04T12:38:20;102161.69;;;8.45;47.69
39265;BME280;42646;51.910;7.724;2023-04-04T12:40:50;102154.84;;;8.41;47.25
39265;BME280;42646;51.910;7.724;2023-04-04T12:43:17;102151.16;;;8.44;46.60
39265;BME280;42646;51.910;7.724;2023-04-04T12:45:49;102150.56;;;8.39;46.04
39265;BME280;42646;51.910;7.724;2023-04-04T12:48:17;102152.13;;;8.43;46.64
39265;BME280;42646;51.910;7.724;2023-04-04T12:50:52;102150.81;;;8.50;46.64
39265;BME280;42646;51.910;7.724;2023-04-04T12:53:23;102139.25;;;8.51;47.33
39265;BME280;42646;51.910;7.724;2023-04-04T12:55:59;102138.41;;;8.50;46.40
39265;BME280;42646;51.910;7.724;2023-04-04T12:58:28;102136.44;;;8.54;46.04
39265;BME280;42646;51.910;7.724;2023-04-04T13:01:00;102129.06;;;8.59;47.00
39265;BME280;42646;51.910;7.724;2023-04-04T13:03:27;102128.78;;;8.64;46.59
39265;BME280;42646;51.910;7.724;2023-04-04T13:05:58;102117.53;;;8.60;46.17
39265;BME280;42646;51.910;7.724;2023-04-04T13:08:26;102109.63;;;8.59;46.08
39265;BME280;42646;51.910;7.724;2023-04-04T13:11:01;102109.22;;;8.66;46.53
39265;BME280;42646;51.910;7.724;2023-04-04T13:13:32;102098.97;;;8.74;46.33